Time;durP1;ratioP1;P1;durP2;ratioP2;P2;SDS_P1;SDS_P2;PMS_P1;PMS_P2;Temp;Humidity;BMP_temperature;BMP_pressure;BME280_temperature;BME280_humidity;BME280_pressure;Samples;Min_cycle;Max_cycle;Signal;HPM_P1;HPM_P2
2024/03/31 00:00:48;;;;;;;9.30;8.07;;;11.80;99.90;;;;;;5073769;28;20603;-58
2024/03/31 00:03:14;;;;;;;5.50;5.00;;;11.80;99.90;;;;;;5073782;28;20205;-58
2024/03/31 00:05:40;;;;;;;4.73;3.90;;;11.70;99.90;;;;;;5073366;28;20535;-58
2024/03/31 00:08:08;;;;;;;3.77;3.47;;;11.70;99.90;;;;;;5073320;28;20596;-58
2024/03/31 00:10:34;;;;;;;4.03;3.63;;;11.60;99.90;;;;;;5073627;28;20449;-58
2024/03/31 00:13:00;;;;;;;4.70;4.20;;;11.60;99.90;;;;;;5073558;28;20498;-58
2024/03/31 00:15:27;;;;;;;5.80;4.93;;;11.60;99.90;;;;;;5073339;28;20444;-58
2024/03/31 00:17:54;;;;;;;5.20;4.70;;;11.60;99.90;;;;;;5073016;28;20700;-58
2024/03/31 00:20:21;;;;;;;6.33;5.00;;;11.50;99.90;;;;;;5073164;28;20487;-58
2024/03/31 00:22:49;;;;;;;5.80;5.23;;;11.50;99.90;;;;;;5073485;28;20543;-58
2024/03/31 00:25:17;;;;;;;6.43;5.83;;;11.50;99.90;;;;;;5073404;28;20483;-58
2024/03/31 00:27:45;;;;;;;6.90;5.80;;;11.50;99.90;;;;;;5073040;28;20905;-58
2024/03/31 00:30:12;;;;;;;5.23;4.73;;;11.50;99.90;;;;;;5073372;28;20441;-58
2024/03/31 00:32:38;;;;;;;5.23;4.80;;;11.50;99.90;;;;;;5073366;28;20447;-58
2024/03/31 00:35:05;;;;;;;7.10;5.30;;;11.50;99.90;;;;;;5073329;28;20440;-58
2024/03/31 00:37:31;;;;;;;5.20;4.40;;;11.40;99.90;;;;;;5073031;28;20607;-58
2024/03/31 00:39:58;;;;;;;5.43;4.80;;;11.30;99.90;;;;;;5073197;28;20515;-58
2024/03/31 00:42:25;;;;;;;4.73;4.07;;;11.30;99.90;;;;;;5072972;28;20690;-58
2024/03/31 00:44:52;;;;;;;5.27;3.93;;;11.30;99.90;;;;;;5073546;28;20451;-58
2024/03/31 00:47:18;;;;;;;4.53;3.30;;;11.20;99.90;;;;;;5073059;28;20963;-58
2024/03/31 00:49:45;;;;;;;3.00;2.80;;;11.20;99.90;;;;;;5073243;28;20527;-58
2024/03/31 00:52:10;;;;;;;3.57;3.23;;;11.20;99.90;;;;;;5072847;28;20202;-58
2024/03/31 00:54:42;;;;;;;4.80;4.40;;;11.10;99.90;;;;;;5073192;28;20448;-58
2024/03/31 00:57:08;;;;;;;4.50;3.93;;;11.10;99.90;;;;;;5072898;28;20322;-58
2024/03/31 00:59:37;;;;;;;5.30;3.60;;;11.10;99.90;;;;;;5073073;28;20519;-58
2024/03/31 01:02:03;;;;;;;5.17;4.37;;;11.10;99.90;;;;;;5073077;28;20463;-58
2024/03/31 01:04:29;;;;;;;4.97;4.00;;;11.00;99.90;;;;;;5072575;28;21034;-58
2024/03/31 01:06:55;;;;;;;6.03;4.83;;;11.00;99.90;;;;;;5072668;28;20715;-58
2024/03/31 01:09:22;;;;;;;4.87;4.30;;;11.00;99.90;;;;;;5072756;28;20453;-58
2024/03/31 01:11:49;;;;;;;5.17;4.67;;;11.00;99.90;;;;;;5072718;28;20756;-58
2024/03/31 01:14:17;;;;;;;5.50;4.03;;;11.00;99.90;;;;;;5072624;28;20453;-58
2024/03/31 01:16:45;;;;;;;5.43;4.57;;;11.00;99.90;;;;;;5072305;28;21020;-58
2024/03/31 01:19:11;;;;;;;4.90;4.40;;;11.00;99.90;;;;;;5072616;28;20451;-58
2024/03/31 01:21:38;;;;;;;4.80;4.30;;;11.00;99.90;;;;;;5072929;28;20441;-58
2024/03/31 01:24:07;;;;;;;4.40;4.00;;;11.10;99.90;;;;;;5072863;28;20437;-58
2024/03/31 01:26:35;;;;;;;5.30;4.63;;;11.10;99.90;;;;;;5072319;28;20452;-58
2024/03/31 01:29:02;;;;;;;5.93;4.67;;;11.10;99.90;;;;;;5072840;28;20502;-58
2024/03/31 01:31:28;;;;;;;6.23;4.87;;;11.00;99.90;;;;;;5072792;28;20451;-58
2024/03/31 01:33:55;;;;;;;5.00;4.37;;;11.00;99.90;;;;;;5076181;28;20440;-58
2024/03/31 01:36:21;;;;;;;4.70;4.10;;;11.00;99.90;;;;;;5076545;28;20848;-58
2024/03/31 01:38:48;;;;;;;4.90;4.40;;;11.00;99.90;;;;;;5076392;28;20460;-58
2024/03/31 01:41:15;;;;;;;5.27;4.77;;;11.00;99.90;;;;;;5076325;28;20448;-58
2024/03/31 01:43:42;;;;;;;6.23;4.80;;;10.90;99.90;;;;;;5076325;28;20448;-58
2024/03/31 01:46:08;;;;;;;5.03;4.57;;;10.90;99.90;;;;;;5076259;28;20452;-58
2024/03/31 01:48:35;;;;;;;7.80;5.50;;;10.90;99.90;;;;;;5076670;28;20567;-58
2024/03/31 01:51:01;;;;;;;5.70;5.10;;;10.90;99.90;;;;;;5076323;28;20445;-58
2024/03/31 01:53:28;;;;;;;5.90;5.27;;;10.90;99.90;;;;;;5076172;28;20490;-58
2024/03/31 01:55:54;;;;;;;6.70;6.00;;;10.90;99.90;;;;;;5076188;28;20443;-58
2024/03/31 01:58:22;;;;;;;8.20;5.73;;;10.90;99.90;;;;;;5076184;28;20488;-58
2024/03/31 02:00:48;;;;;;;6.37;5.47;;;10.90;99.90;;;;;;5075768;28;20206;-58
2024/03/31 02:03:15;;;;;;;6.37;5.67;;;10.90;99.90;;;;;;5075980;28;20455;-58
2024/03/31 02:05:40;;;;;;;7.03;5.23;;;10.90;99.90;;;;;;5075981;28;20206;-58
2024/03/31 02:08:07;;;;;;;5.40;4.70;;;10.90;99.90;;;;;;5075953;28;20457;-58
2024/03/31 02:10:33;;;;;;;6.87;5.53;;;10.90;99.90;;;;;;5075955;28;20214;-58
2024/03/31 02:13:00;;;;;;;6.37;5.53;;;10.90;99.90;;;;;;5075500;28;20449;-58
2024/03/31 02:15:27;;;;;;;6.03;5.47;;;10.90;99.90;;;;;;5075360;28;20676;-57
2024/03/31 02:17:53;;;;;;;7.47;6.50;;;10.90;99.90;;;;;;5075739;28;20481;-58
2024/03/31 02:20:20;;;;;;;6.17;5.57;;;10.90;99.90;;;;;;5075420;28;20965;-58
2024/03/31 02:22:46;;;;;;;6.93;5.97;;;10.90;99.90;;;;;;5075671;28;20523;-58
2024/03/31 02:25:12;;;;;;;5.50;5.00;;;10.90;99.90;;;;;;5075820;28;20451;-58
2024/03/31 02:27:39;;;;;;;7.00;5.40;;;10.90;99.90;;;;;;5075180;28;20551;-58
2024/03/31 02:30:06;;;;;;;6.33;5.60;;;10.90;99.90;;;;;;5068187;28;20210;-58
2024/03/31 02:32:34;;;;;;;6.23;5.37;;;10.80;99.90;;;;;;5075598;28;20444;-58
2024/03/31 02:35:00;;;;;;;6.60;5.90;;;10.80;99.90;;;;;;5075550;28;20449;-58
2024/03/31 02:37:27;;;;;;;7.03;6.33;;;10.80;99.90;;;;;;5074990;28;21073;-57
2024/03/31 02:39:53;;;;;;;6.27;5.67;;;10.80;99.90;;;;;;5075125;28;21030;-58
2024/03/31 02:42:19;;;;;;;8.10;6.90;;;10.90;99.90;;;;;;5075018;28;20535;-58
2024/03/31 02:44:45;;;;;;;7.27;6.40;;;10.90;99.90;;;;;;5075225;28;20198;-58
2024/03/31 02:47:12;;;;;;;7.93;7.17;;;10.90;99.90;;;;;;5074904;28;20831;-57
2024/03/31 02:49:39;;;;;;;7.47;6.70;;;10.90;99.90;;;;;;5074883;28;20206;-58
2024/03/31 02:52:06;;;;;;;7.70;6.90;;;11.00;99.90;;;;;;5075247;28;20499;-58
2024/03/31 02:54:32;;;;;;;7.37;6.47;;;11.00;99.90;;;;;;5075039;28;20935;-59
2024/03/31 02:56:59;;;;;;;8.20;7.50;;;11.00;99.90;;;;;;5074989;28;20491;-59
2024/03/31 02:59:24;;;;;;;8.73;7.87;;;11.00;99.90;;;;;;5075136;28;20436;-59
2024/03/31 03:01:51;;;;;;;11.67;10.07;;;11.10;99.90;;;;;;5074860;28;20471;-59
2024/03/31 03:04:17;;;;;;;9.70;8.70;;;11.10;99.90;;;;;;5074974;28;20214;-59
2024/03/31 03:06:45;;;;;;;10.37;9.37;;;11.10;99.90;;;;;;5074949;28;20437;-59
2024/03/31 03:09:11;;;;;;;11.93;10.70;;;11.10;99.90;;;;;;5074962;28;20202;-59
2024/03/31 03:11:38;;;;;;;11.63;9.47;;;11.20;99.90;;;;;;5074809;28;20789;-59
2024/03/31 03:14:03;;;;;;;11.30;9.60;;;11.10;99.90;;;;;;5074684;28;20213;-59
2024/03/31 03:16:30;;;;;;;10.73;9.63;;;11.10;99.90;;;;;;5074525;28;20448;-59
2024/03/31 03:18:56;;;;;;;12.27;10.97;;;11.20;99.90;;;;;;5074519;28;20574;-59
2024/03/31 03:21:23;;;;;;;11.70;10.60;;;11.20;99.90;;;;;;5074570;28;20518;-59
2024/03/31 03:23:50;;;;;;;11.47;10.23;;;11.20;99.90;;;;;;5074608;28;20206;-59
2024/03/31 03:26:17;;;;;;;13.10;10.80;;;11.20;99.90;;;;;;5074503;28;20445;-59
2024/03/31 03:28:42;;;;;;;11.90;10.57;;;11.20;99.90;;;;;;5073950;28;20464;-59
2024/03/31 03:31:09;;;;;;;14.93;11.10;;;11.20;99.90;;;;;;5074360;28;20447;-59
2024/03/31 03:33:35;;;;;;;11.00;9.90;;;11.20;99.90;;;;;;5074261;28;20202;-58
2024/03/31 03:36:05;;;;;;;13.30;11.30;;;11.20;99.90;;;;;;5074322;28;20440;-59
2024/03/31 03:38:32;;;;;;;13.20;11.27;;;11.20;99.90;;;;;;5074117;28;20230;-59
2024/03/31 03:41:01;;;;;;;11.40;10.20;;;11.30;99.90;;;;;;5074182;28;20440;-59
2024/03/31 03:43:32;;;;;;;14.10;10.20;;;11.30;99.90;;;;;;5074109;28;20511;-59
2024/03/31 03:45:59;;;;;;;12.57;11.27;;;11.20;99.90;;;;;;5074110;28;20483;-59
2024/03/31 03:48:25;;;;;;;11.17;10.03;;;11.20;99.90;;;;;;5073923;28;20544;-59
2024/03/31 03:50:52;;;;;;;11.43;9.63;;;11.30;99.90;;;;;;5073942;28;20444;-59
2024/03/31 03:53:18;;;;;;;9.83;8.83;;;11.30;99.90;;;;;;5073656;28;20946;-58
2024/03/31 03:55:45;;;;;;;11.27;7.83;;;11.30;99.90;;;;;;5072989;28;20448;-58
2024/03/31 03:58:12;;;;;;;11.70;9.50;;;11.30;99.90;;;;;;5073371;28;21025;-58
2024/03/31 04:00:40;;;;;;;13.13;9.63;;;11.30;99.90;;;;;;5074067;28;20448;-58
2024/03/31 04:03:06;;;;;;;13.10;10.10;;;11.30;99.90;;;;;;5073740;28;20447;-58
2024/03/31 04:05:33;;;;;;;11.93;9.43;;;11.30;99.90;;;;;;5073662;28;20535;-58
2024/03/31 04:07:58;;;;;;;11.70;10.60;;;11.30;99.90;;;;;;5073675;28;20229;-58
2024/03/31 04:10:25;;;;;;;11.13;9.93;;;11.30;99.90;;;;;;5073256;28;20906;-58
2024/03/31 04:12:51;;;;;;;10.83;9.30;;;11.40;99.90;;;;;;5073315;28;20596;-58
2024/03/31 04:15:19;;;;;;;14.40;9.60;;;11.40;99.90;;;;;;5073428;28;20437;-58
2024/03/31 04:17:45;;;;;;;10.83;9.20;;;11.30;99.90;;;;;;5073126;28;20730;-58
2024/03/31 04:20:12;;;;;;;8.40;7.60;;;11.20;99.90;;;;;;5073559;28;20440;-58
2024/03/31 04:22:38;;;;;;;9.10;7.63;;;11.20;99.90;;;;;;5073507;28;20202;-58
2024/03/31 04:25:05;;;;;;;12.27;8.87;;;11.20;99.90;;;;;;5057096;28;20467;-58
2024/03/31 04:27:31;;;;;;;8.27;7.10;;;11.30;99.90;;;;;;5073219;28;20313;-58
2024/03/31 04:29:57;;;;;;;16.53;6.90;;;11.20;99.90;;;;;;5073411;28;21014;-58
2024/03/31 04:32:25;;;;;;;9.80;6.90;;;11.20;99.90;;;;;;5073361;28;20205;-58
2024/03/31 04:34:51;;;;;;;6.23;5.30;;;11.30;99.90;;;;;;5073343;28;20528;-57
2024/03/31 04:37:20;;;;;;;9.20;6.20;;;11.30;99.90;;;;;;5073485;28;20480;-58
2024/03/31 04:39:47;;;;;;;12.10;6.73;;;11.30;99.90;;;;;;5073350;28;20448;-58
2024/03/31 04:42:13;;;;;;;6.50;5.10;;;11.30;99.90;;;;;;5073227;28;20437;-57
2024/03/31 04:44:39;;;;;;;12.00;6.17;;;11.30;99.90;;;;;;5074185;28;20441;-58
2024/03/31 04:47:05;;;;;;;9.00;5.77;;;11.30;99.90;;;;;;5073226;28;20214;-58
2024/03/31 04:49:33;;;;;;;8.80;5.10;;;11.30;99.90;;;;;;5072793;28;20475;-58
2024/03/31 04:51:59;;;;;;;8.30;4.57;;;11.30;99.90;;;;;;5073197;28;20202;-58
2024/03/31 04:54:26;;;;;;;10.50;5.93;;;11.30;99.90;;;;;;5073400;28;20806;-58
2024/03/31 04:56:52;;;;;;;7.57;5.47;;;11.30;99.90;;;;;;5072752;28;20212;-58
2024/03/31 04:59:18;;;;;;;8.97;5.03;;;11.30;99.90;;;;;;5073194;28;20519;-58
2024/03/31 05:01:44;;;;;;;10.50;5.13;;;11.30;99.90;;;;;;5073112;28;20207;-58
2024/03/31 05:04:11;;;;;;;9.90;4.97;;;11.30;99.90;;;;;;5073119;28;20452;-58
2024/03/31 05:06:38;;;;;;;9.53;5.73;;;11.30;99.90;;;;;;5072992;28;20198;-57
2024/03/31 05:09:06;;;;;;;6.50;4.90;;;11.30;99.90;;;;;;5076832;28;20445;-57
2024/03/31 05:11:32;;;;;;;9.70;5.40;;;11.20;99.90;;;;;;5076940;28;20998;-57
2024/03/31 05:14:00;;;;;;;7.47;4.60;;;11.20;99.90;;;;;;5077135;28;20452;-57
2024/03/31 05:16:26;;;;;;;9.40;5.03;;;11.20;99.90;;;;;;5076893;28;20452;-57
2024/03/31 05:18:54;;;;;;;6.13;5.53;;;11.20;99.90;;;;;;5076598;28;20981;-57
2024/03/31 05:21:20;;;;;;;11.13;6.10;;;11.10;99.90;;;;;;5076546;28;20946;-57
2024/03/31 05:23:48;;;;;;;9.47;5.70;;;11.20;99.90;;;;;;5076900;28;20501;-57
2024/03/31 05:26:14;;;;;;;8.90;5.47;;;11.10;99.90;;;;;;5076619;28;20902;-57
2024/03/31 05:28:41;;;;;;;11.23;5.10;;;11.10;99.90;;;;;;5076325;28;20503;-57
2024/03/31 05:31:07;;;;;;;9.23;5.20;;;11.20;99.90;;;;;;5076675;28;20812;-57
2024/03/31 05:33:34;;;;;;;11.27;5.90;;;11.10;99.90;;;;;;5076516;28;20436;-57
2024/03/31 05:36:00;;;;;;;8.80;5.30;;;11.10;99.90;;;;;;5076306;28;20206;-57
2024/03/31 05:38:27;;;;;;;13.20;5.30;;;11.10;99.90;;;;;;5076431;28;20843;-57
2024/03/31 05:40:55;;;;;;;10.50;4.50;;;11.20;99.90;;;;;;5076541;28;20203;-57
2024/03/31 05:43:22;;;;;;;10.70;4.73;;;11.20;99.90;;;;;;5076509;28;20963;-57
2024/03/31 05:45:48;;;;;;;8.27;4.23;;;11.30;99.90;;;;;;5076245;28;20445;-57
2024/03/31 05:48:15;;;;;;;12.83;4.43;;;11.30;99.90;;;;;;5076292;28;21028;-57
2024/03/31 05:50:41;;;;;;;7.83;4.53;;;11.30;99.90;;;;;;5076282;28;20451;-57
2024/03/31 05:53:07;;;;;;;6.93;4.17;;;11.40;99.90;;;;;;5076326;28;20524;-57
2024/03/31 05:55:33;;;;;;;5.33;3.77;;;11.40;99.90;;;;;;5075948;28;20687;-57
2024/03/31 05:58:01;;;;;;;8.00;3.90;;;11.50;99.90;;;;;;5076800;28;20480;-57
2024/03/31 06:00:27;;;;;;;12.23;4.80;;;11.50;99.90;;;;;;5075863;28;20209;-57
2024/03/31 06:02:54;;;;;;;10.17;4.27;;;11.50;99.90;;;;;;5075973;28;20441;-57
2024/03/31 06:05:20;;;;;;;9.87;3.70;;;11.50;99.90;;;;;;5076036;28;20209;-58
2024/03/31 06:07:48;;;;;;;8.73;3.10;;;11.50;99.90;;;;;;5076478;28;20456;-58
2024/03/31 06:10:14;;;;;;;8.10;3.70;;;11.50;99.90;;;;;;5075961;28;20448;-58
2024/03/31 06:12:41;;;;;;;7.83;3.10;;;11.50;99.90;;;;;;5075918;28;20444;-58
2024/03/31 06:15:08;;;;;;;6.73;3.90;;;11.50;99.90;;;;;;5075851;28;20814;-58
2024/03/31 06:17:35;;;;;;;10.00;4.10;;;11.60;99.90;;;;;;5075314;28;20484;-58
2024/03/31 06:20:01;;;;;;;7.60;4.40;;;11.60;99.90;;;;;;5075773;28;20818;-58
2024/03/31 06:22:28;;;;;;;8.97;3.77;;;11.60;99.90;;;;;;5075733;28;20444;-58
2024/03/31 06:24:54;;;;;;;10.57;3.47;;;11.70;99.90;;;;;;5075974;28;20443;-58
2024/03/31 06:27:20;;;;;;;9.60;3.97;;;11.70;99.90;;;;;;5075834;28;20468;-58
2024/03/31 06:29:48;;;;;;;10.60;3.60;;;11.80;99.90;;;;;;5075830;28;20202;-58
2024/03/31 06:32:16;;;;;;;6.27;3.00;;;11.80;99.90;;;;;;5075613;28;20799;-58
2024/03/31 06:34:42;;;;;;;11.27;3.73;;;11.90;99.90;;;;;;5075395;28;20440;-58
2024/03/31 06:37:09;;;;;;;5.20;2.60;;;11.90;99.90;;;;;;5075002;28;20547;-58
2024/03/31 06:39:34;;;;;;;6.80;3.10;;;12.00;99.90;;;;;;5075436;28;20202;-58
2024/03/31 06:42:01;;;;;;;3.47;2.77;;;12.10;99.90;;;;;;5075469;28;20816;-58
2024/03/31 06:44:27;;;;;;;10.80;3.63;;;12.10;99.90;;;;;;5075682;28;20276;-58
2024/03/31 06:46:54;;;;;;;12.57;3.20;;;12.20;99.90;;;;;;5075175;28;20994;-58
2024/03/31 06:49:21;;;;;;;8.57;2.50;;;12.40;99.90;;;;;;5075320;28;20441;-58
2024/03/31 06:51:48;;;;;;;10.17;3.13;;;12.50;99.90;;;;;;5075033;28;20449;-58
2024/03/31 06:54:14;;;;;;;7.97;3.63;;;12.70;99.90;;;;;;5075260;28;20450;-58
2024/03/31 06:56:41;;;;;;;13.10;3.43;;;12.80;99.90;;;;;;5074684;28;20448;-58
2024/03/31 06:59:07;;;;;;;6.80;2.57;;;12.90;99.90;;;;;;5074749;28;20733;-58
2024/03/31 07:01:33;;;;;;;6.60;2.77;;;13.00;99.90;;;;;;5075117;28;20455;-58
2024/03/31 07:03:59;;;;;;;9.20;3.40;;;13.20;99.90;;;;;;5075080;28;20445;-58
2024/03/31 07:06:27;;;;;;;9.43;3.30;;;13.30;99.90;;;;;;5074978;28;20455;-58
2024/03/31 07:08:53;;;;;;;3.80;2.70;;;13.40;99.90;;;;;;5074892;28;20220;-58
2024/03/31 07:11:20;;;;;;;15.00;3.77;;;13.40;99.90;;;;;;5074858;28;20440;-58
2024/03/31 07:13:46;;;;;;;10.13;3.27;;;13.50;99.90;;;;;;5074784;28;20202;-58
2024/03/31 07:16:13;;;;;;;8.27;3.30;;;13.50;99.90;;;;;;5074704;28;20968;-57
2024/03/31 07:18:39;;;;;;;10.60;3.17;;;13.60;99.90;;;;;;5074686;28;20218;-58
2024/03/31 07:21:06;;;;;;;7.83;3.10;;;13.60;99.90;;;;;;5074768;28;20444;-58
2024/03/31 07:23:33;;;;;;;7.80;3.70;;;13.70;99.90;;;;;;5074834;28;20198;-58
2024/03/31 07:26:00;;;;;;;10.83;3.30;;;13.70;99.90;;;;;;5075014;28;20449;-57
2024/03/31 07:28:26;;;;;;;12.97;4.13;;;13.80;99.90;;;;;;5074544;28;20479;-58
2024/03/31 07:30:53;;;;;;;7.93;2.43;;;13.90;99.90;;;;;;5073784;28;20479;-58
2024/03/31 07:33:19;;;;;;;8.73;3.00;;;14.00;99.90;;;;;;5074150;28;20502;-58
2024/03/31 07:35:46;;;;;;;11.23;2.73;;;14.00;99.90;;;;;;5074292;28;20547;-57
2024/03/31 07:38:12;;;;;;;7.07;3.43;;;14.10;99.90;;;;;;5074547;28;20484;-57
2024/03/31 07:40:40;;;;;;;12.10;3.70;;;14.10;99.90;;;;;;5074279;28;20451;-58
2024/03/31 07:43:08;;;;;;;11.53;3.13;;;14.20;99.90;;;;;;5074547;28;20209;-57
2024/03/31 07:45:35;;;;;;;10.60;2.70;;;14.30;99.90;;;;;;5074265;28;20460;-57
2024/03/31 07:48:01;;;;;;;10.80;3.37;;;14.50;99.90;;;;;;5073492;28;20863;-58
2024/03/31 07:50:28;;;;;;;10.90;3.10;;;14.60;99.90;;;;;;5074206;28;20444;-57
2024/03/31 07:52:54;;;;;;;7.70;2.60;;;14.90;99.90;;;;;;5074233;28;20445;-58
2024/03/31 07:55:21;;;;;;;9.40;2.60;;;15.00;99.90;;;;;;5074059;28;20451;-57
2024/03/31 07:57:50;;;;;;;8.90;2.47;;;15.20;99.90;;;;;;5073433;28;20232;-57
2024/03/31 08:00:17;;;;;;;7.50;3.33;;;15.30;99.90;;;;;;5073861;28;20457;-57
2024/03/31 08:02:43;;;;;;;9.17;2.87;;;15.40;99.90;;;;;;5073581;28;20950;-58
2024/03/31 08:05:10;;;;;;;9.70;2.73;;;15.50;99.90;;;;;;5073751;28;20518;-57
2024/03/31 08:07:36;;;;;;;7.60;2.40;;;15.50;99.90;;;;;;5073632;28;20233;-57
2024/03/31 08:10:03;;;;;;;5.30;2.23;;;15.60;99.90;;;;;;5073833;28;20448;-58
2024/03/31 08:12:29;;;;;;;8.53;3.00;;;15.70;99.90;;;;;;5073631;28;20202;-58
2024/03/31 08:14:57;;;;;;;7.87;2.67;;;15.70;99.90;;;;;;5073639;28;20448;-58
2024/03/31 08:17:23;;;;;;;10.17;2.70;;;15.80;99.90;;;;;;5073360;28;20244;-57
2024/03/31 08:19:50;;;;;;;9.90;2.60;;;15.90;99.90;;;;;;5073555;28;20998;-57
2024/03/31 08:22:16;;;;;;;14.73;3.50;;;16.00;99.90;;;;;;5073411;28;20256;-57
2024/03/31 08:24:43;;;;;;;6.30;2.10;;;16.10;99.90;;;;;;5073420;28;20856;-57
2024/03/31 08:27:09;;;;;;;9.47;2.67;;;16.20;99.90;;;;;;5073170;28;20230;-57
2024/03/31 08:29:36;;;;;;;11.13;3.23;;;16.20;99.90;;;;;;5073376;28;20443;-57
2024/03/31 08:32:04;;;;;;;13.53;2.63;;;16.30;99.90;;;;;;5073388;28;20228;-57
2024/03/31 08:34:30;;;;;;;7.83;2.20;;;16.30;99.90;;;;;;5073636;28;20531;-57
2024/03/31 08:36:56;;;;;;;8.43;1.80;;;16.50;99.90;;;;;;5072923;28;20530;-57
2024/03/31 08:39:23;;;;;;;13.67;2.57;;;16.60;99.90;;;;;;5073285;28;20480;-57
2024/03/31 08:41:55;;;;;;;9.03;2.63;;;16.80;99.90;;;;;;5073180;28;20206;-57
2024/03/31 08:44:23;;;;;;;9.40;2.43;;;17.00;99.90;;;;;;5073318;28;20424;-57
2024/03/31 08:46:49;;;;;;;7.73;1.70;;;17.20;99.50;;;;;;5073058;28;20444;-57
2024/03/31 08:49:18;;;;;;;8.17;2.10;;;17.30;97.90;;;;;;5072858;28;20862;-57
2024/03/31 08:51:44;;;;;;;11.33;3.00;;;17.40;97.30;;;;;;5072897;28;20452;-57
2024/03/31 08:54:11;;;;;;;10.50;2.70;;;17.50;97.40;;;;;;5073103;28;20818;-57
2024/03/31 08:56:37;;;;;;;5.10;2.13;;;17.60;97.40;;;;;;5073129;28;20444;-57
2024/03/31 08:59:04;;;;;;;6.73;2.53;;;17.70;96.90;;;;;;5073047;28;20479;-57
2024/03/31 09:01:33;;;;;;;4.77;1.73;;;17.80;96.80;;;;;;5073918;28;20213;-57
2024/03/31 09:04:00;;;;;;;13.13;2.20;;;18.00;96.40;;;;;;5073189;28;20444;-57
2024/03/31 09:06:27;;;;;;;7.83;2.57;;;18.10;96.20;;;;;;5072678;28;20445;-58
2024/03/31 09:08:59;;;;;;;6.10;2.17;;;18.30;96.20;;;;;;5073475;28;20468;-57
2024/03/31 09:11:25;;;;;;;11.07;2.70;;;18.60;95.80;;;;;;5072803;28;20946;-57
2024/03/31 09:13:52;;;;;;;5.53;1.83;;;18.80;94.90;;;;;;5072629;28;20447;-57
2024/03/31 09:16:18;;;;;;;6.47;2.07;;;19.00;94.50;;;;;;5072868;28;20561;-57
2024/03/31 09:18:45;;;;;;;12.73;2.93;;;19.30;94.10;;;;;;5072761;28;20480;-57
2024/03/31 09:21:11;;;;;;;6.53;2.00;;;19.40;93.50;;;;;;5072629;28;20680;-57
2024/03/31 09:23:40;;;;;;;7.83;2.40;;;19.60;93.30;;;;;;5072517;28;20449;-57
2024/03/31 09:26:06;;;;;;;8.43;2.30;;;19.90;92.10;;;;;;5073081;28;20204;-57
2024/03/31 09:28:34;;;;;;;7.40;2.03;;;20.00;90.50;;;;;;5072424;28;20551;-57
2024/03/31 09:30:59;;;;;;;7.80;2.73;;;20.00;90.10;;;;;;5072794;28;20445;-57
2024/03/31 09:33:26;;;;;;;14.30;2.27;;;20.10;86.90;;;;;;5072567;28;20813;-57
2024/03/31 09:35:52;;;;;;;8.13;2.97;;;20.10;87.80;;;;;;5072520;28;20700;-57
2024/03/31 09:38:19;;;;;;;7.27;1.73;;;20.20;86.80;;;;;;5072650;28;20481;-57
2024/03/31 09:40:47;;;;;;;6.13;1.50;;;20.30;87.10;;;;;;5072711;28;20202;-57
2024/03/31 09:43:14;;;;;;;7.00;1.93;;;20.40;85.80;;;;;;5072713;28;20448;-57
2024/03/31 09:45:43;;;;;;;5.57;1.80;;;20.40;83.10;;;;;;5072927;28;20479;-57
2024/03/31 09:48:17;;;;;;;7.30;2.13;;;20.50;82.80;;;;;;5072336;28;20978;-57
2024/03/31 09:50:49;;;;;;;6.33;2.00;;;20.60;82.60;;;;;;5072710;28;20425;-58
2024/03/31 09:53:20;;;;;;;11.33;1.80;;;20.80;82.00;;;;;;5073352;28;20433;-58
2024/03/31 09:55:52;;;;;;;6.50;1.80;;;21.10;79.30;;;;;;5076196;28;20443;-57
2024/03/31 09:58:21;;;;;;;5.80;1.70;;;21.10;76.40;;;;;;5076159;28;20484;-57
2024/03/31 10:00:48;;;;;;;5.60;1.60;;;21.20;76.00;;;;;;5076607;28;20451;-58
2024/03/31 10:03:23;;;;;;;8.20;2.37;;;21.30;74.80;;;;;;5076138;28;20440;-58
2024/03/31 10:05:49;;;;;;;5.73;1.77;;;21.40;72.30;;;;;;5076140;28;20431;-58
2024/03/31 10:08:17;;;;;;;9.73;2.03;;;21.40;72.40;;;;;;5075980;28;20495;-58
2024/03/31 10:10:43;;;;;;;7.97;1.70;;;21.40;71.70;;;;;;5075973;28;20441;-58
2024/03/31 10:13:13;;;;;;;7.83;2.30;;;21.30;72.50;;;;;;5075658;28;20538;-58
2024/03/31 10:15:40;;;;;;;11.13;2.40;;;21.50;75.70;;;;;;5076190;28;20225;-57
2024/03/31 10:18:09;;;;;;;6.10;2.07;;;21.80;73.20;;;;;;5075630;28;20484;-57
2024/03/31 10:20:35;;;;;;;4.13;1.23;;;22.10;70.50;;;;;;5075826;28;20445;-58
2024/03/31 10:23:03;;;;;;;10.73;2.07;;;22.40;69.00;;;;;;5075449;28;20448;-58
2024/03/31 10:25:29;;;;;;;9.13;2.00;;;22.80;66.40;;;;;;5075957;28;20448;-58
2024/03/31 10:27:57;;;;;;;6.43;1.73;;;23.10;64.60;;;;;;5075540;28;20476;-58
2024/03/31 10:30:27;;;;;;;7.03;1.83;;;23.40;64.60;;;;;;5075344;28;20751;-58
2024/03/31 10:32:54;;;;;;;5.27;2.20;;;23.90;63.60;;;;;;5075600;28;20488;-58
2024/03/31 10:35:21;;;;;;;8.57;1.87;;;24.60;61.50;;;;;;5075496;28;20445;-57
2024/03/31 10:37:49;;;;;;;8.27;2.37;;;25.30;58.90;;;;;;5075338;28;20827;-58
2024/03/31 10:40:16;;;;;;;11.67;2.60;;;26.00;56.70;;;;;;5075153;28;20957;-58
2024/03/31 10:42:43;;;;;;;6.90;2.40;;;26.70;55.20;;;;;;5075407;28;20498;-58
2024/03/31 10:45:09;;;;;;;6.13;2.53;;;27.50;52.70;;;;;;5075261;28;20437;-57
2024/03/31 10:47:37;;;;;;;5.17;2.30;;;28.20;47.30;;;;;;5075064;28;20492;-57
2024/03/31 10:50:06;;;;;;;8.83;1.83;;;28.60;45.40;;;;;;5075263;28;20440;-58
2024/03/31 10:52:37;;;;;;;8.87;2.20;;;29.20;44.50;;;;;;5075346;28;20444;-58
2024/03/31 10:55:06;;;;;;;7.00;2.17;;;29.70;41.30;;;;;;5075147;28;20523;-58
2024/03/31 10:57:37;;;;;;;7.83;2.07;;;29.90;40.60;;;;;;5075042;28;20463;-58
2024/03/31 11:00:05;;;;;;;5.10;1.90;;;29.80;39.30;;;;;;5075006;28;20853;-58
2024/03/31 11:02:33;;;;;;;8.53;1.80;;;29.30;37.40;;;;;;5074824;28;20448;-58
2024/03/31 11:05:03;;;;;;;6.80;1.90;;;28.80;39.30;;;;;;5073658;28;20449;-58
2024/03/31 11:07:31;;;;;;;5.70;1.50;;;28.30;40.30;;;;;;5074602;28;20990;-58
2024/03/31 11:09:57;;;;;;;7.47;2.00;;;27.90;41.20;;;;;;5074567;28;20444;-58
2024/03/31 11:12:25;;;;;;;3.73;1.33;;;27.40;40.50;;;;;;5074991;28;20452;-58
2024/03/31 11:14:51;;;;;;;9.80;1.80;;;27.10;41.70;;;;;;5074705;28;20450;-57
2024/03/31 11:17:18;;;;;;;5.30;1.47;;;26.90;41.90;;;;;;5074374;28;20496;-58
2024/03/31 11:19:44;;;;;;;6.97;1.50;;;27.00;43.10;;;;;;5074610;28;20486;-58
2024/03/31 11:22:13;;;;;;;5.37;1.47;;;27.20;42.60;;;;;;5074632;28;20444;-58
2024/03/31 11:24:40;;;;;;;5.50;2.03;;;27.30;42.60;;;;;;5074574;28;20437;-57
2024/03/31 11:27:08;;;;;;;4.03;1.50;;;27.30;41.30;;;;;;5074563;28;20937;-57
2024/03/31 11:29:35;;;;;;;7.97;2.10;;;27.20;41.10;;;;;;5074500;28;20441;-58
2024/03/31 11:32:03;;;;;;;4.40;1.50;;;27.20;42.60;;;;;;5074318;28;20440;-58
2024/03/31 11:34:29;;;;;;;9.60;1.83;;;27.20;42.90;;;;;;5074321;28;20542;-58
2024/03/31 11:36:55;;;;;;;7.37;1.93;;;27.20;42.20;;;;;;5074026;28;20552;-58
2024/03/31 11:39:22;;;;;;;7.27;2.00;;;27.10;41.50;;;;;;5074243;28;20223;-58
2024/03/31 11:41:49;;;;;;;6.13;2.00;;;27.00;42.20;;;;;;5074250;28;20455;-58
2024/03/31 11:44:15;;;;;;;3.63;1.57;;;26.90;42.30;;;;;;5074243;28;20821;-57
2024/03/31 11:46:42;;;;;;;6.23;1.60;;;26.70;42.60;;;;;;5073685;28;20445;-58
2024/03/31 11:49:08;;;;;;;7.27;1.30;;;26.40;42.20;;;;;;5074135;28;20201;-58
2024/03/31 11:51:38;;;;;;;5.80;1.60;;;26.10;42.60;;;;;;5073685;28;20447;-58
2024/03/31 11:54:05;;;;;;;5.40;1.40;;;25.90;42.90;;;;;;5074007;28;20935;-58
2024/03/31 11:56:33;;;;;;;4.43;1.30;;;26.20;44.40;;;;;;5073824;28;20498;-57
2024/03/31 11:58:59;;;;;;;8.40;1.97;;;27.50;43.20;;;;;;5073846;28;20483;-58
2024/03/31 12:01:26;;;;;;;6.47;1.70;;;29.20;40.20;;;;;;5073881;28;20446;-55
2024/03/31 12:03:53;;;;;;;3.13;1.33;;;30.90;37.30;;;;;;5073821;28;20208;-55
2024/03/31 12:06:21;;;;;;;3.00;1.10;;;32.30;33.10;;;;;;5073762;28;20527;-56
2024/03/31 12:08:46;;;;;;;5.13;1.27;;;33.30;31.10;;;;;;5073696;28;20546;-55
2024/03/31 12:11:13;;;;;;;4.90;1.27;;;34.00;28.70;;;;;;5073859;28;21034;-56
2024/03/31 12:13:41;;;;;;;4.67;1.27;;;34.10;27.90;;;;;;5073810;28;20201;-55
2024/03/31 12:16:08;;;;;;;4.47;1.77;;;33.70;28.20;;;;;;5073305;28;20479;-55
2024/03/31 12:18:34;;;;;;;5.50;1.50;;;33.30;28.50;;;;;;5073567;28;20312;-55
2024/03/31 12:21:01;;;;;;;3.40;1.10;;;32.60;29.20;;;;;;5073284;28;20519;-56
2024/03/31 12:23:28;;;;;;;3.33;1.40;;;31.80;29.60;;;;;;5073782;28;20198;-55
2024/03/31 12:25:55;;;;;;;6.00;1.57;;;30.90;30.60;;;;;;5073210;28;20444;-55
2024/03/31 12:28:21;;;;;;;5.27;1.20;;;30.10;32.10;;;;;;5073340;28;20468;-55
2024/03/31 12:30:49;;;;;;;5.40;1.77;;;29.40;33.70;;;;;;5073468;28;20501;-55
2024/03/31 12:33:17;;;;;;;2.93;1.00;;;28.80;35.30;;;;;;5073408;28;20450;-55
2024/03/31 12:35:43;;;;;;;6.07;1.30;;;28.20;36.00;;;;;;5073090;28;20961;-55
2024/03/31 12:38:09;;;;;;;6.50;1.70;;;27.70;37.00;;;;;;5073291;28;20476;-55
2024/03/31 12:40:36;;;;;;;4.60;1.83;;;27.20;37.50;;;;;;5073245;28;20917;-55